createdAt,value
2018-11-11T00:00:14.078Z,4.07
2018-11-11T00:02:43.117Z,4.02
2018-11-11T00:05:12.262Z,4.07
2018-11-11T00:07:41.310Z,4.05
2018-11-11T00:10:10.008Z,3.96
2018-11-11T00:12:39.538Z,4.04
2018-11-11T00:15:11.795Z,4.03
2018-11-11T00:17:41.671Z,3.99
2018-11-11T00:20:11.393Z,3.94
2018-11-11T00:22:40.494Z,3.89
2018-11-11T00:25:09.866Z,3.87
2018-11-11T00:27:39.451Z,3.88
2018-11-11T00:30:10.396Z,3.87
2018-11-11T00:32:39.251Z,3.94
2018-11-11T00:35:08.397Z,3.83
2018-11-11T00:37:37.223Z,3.79
2018-11-11T00:40:06.150Z,3.84
2018-11-11T00:42:35.327Z,3.97
2018-11-11T00:45:04.219Z,3.97
2018-11-11T00:47:33.045Z,4.01
2018-11-11T00:50:02.105Z,4.00
2018-11-11T00:52:31.082Z,3.84
2018-11-11T00:55:00.181Z,3.78
2018-11-11T00:57:29.430Z,3.72
2018-11-11T00:59:58.060Z,3.68
2018-11-11T01:02:27.074Z,3.73
2018-11-11T01:04:55.812Z,3.80
2018-11-11T01:07:24.582Z,3.81
2018-11-11T01:09:53.339Z,3.78
2018-11-11T01:12:22.271Z,3.70
2018-11-11T01:14:50.992Z,3.82
2018-11-11T01:17:20.244Z,3.89
2018-11-11T01:19:49.164Z,3.79
2018-11-11T01:22:18.276Z,3.94
2018-11-11T01:24:47.142Z,3.88
2018-11-11T01:27:15.941Z,3.64
2018-11-11T01:29:44.717Z,3.60
2018-11-11T01:32:13.553Z,3.65
2018-11-11T01:34:42.330Z,3.70
2018-11-11T01:37:11.040Z,3.94
2018-11-11T01:39:39.720Z,4.02
2018-11-11T01:42:08.769Z,3.99
2018-11-11T01:44:37.694Z,4.08
2018-11-11T01:47:06.582Z,4.10
2018-11-11T01:49:35.705Z,3.87
2018-11-11T01:52:04.813Z,3.71
2018-11-11T01:54:33.525Z,3.63
2018-11-11T01:57:02.280Z,3.45
2018-11-11T01:59:31.124Z,3.41
2018-11-11T02:01:59.906Z,3.41
2018-11-11T02:04:28.553Z,3.30
2018-11-11T02:06:57.321Z,3.26
2018-11-11T02:09:26.010Z,3.24
2018-11-11T02:11:54.945Z,3.30
2018-11-11T02:14:24.036Z,3.27
2018-11-11T02:16:52.945Z,3.41
2018-11-11T02:19:21.839Z,3.54
2018-11-11T02:21:50.718Z,3.36
2018-11-11T02:24:19.715Z,3.25
2018-11-11T02:26:48.773Z,3.18
2018-11-11T02:29:17.476Z,3.09
2018-11-11T02:31:46.061Z,3.06
2018-11-11T02:34:15.082Z,3.07
2018-11-11T02:36:43.815Z,3.02
2018-11-11T02:39:12.511Z,3.08
2018-11-11T02:41:41.266Z,2.99
2018-11-11T02:44:10.242Z,3.07
2018-11-11T02:46:39.226Z,3.09
2018-11-11T02:49:08.243Z,3.09
2018-11-11T02:51:37.099Z,3.02
2018-11-11T02:54:06.060Z,2.98
2018-11-11T02:56:34.945Z,2.99
2018-11-11T02:59:03.801Z,2.98
2018-11-11T03:01:32.519Z,3.16
2018-11-11T03:04:01.745Z,3.08
2018-11-11T03:06:30.622Z,3.06
2018-11-11T03:08:59.357Z,3.09
2018-11-11T03:11:28.443Z,3.25
2018-11-11T03:13:57.142Z,3.44
2018-11-11T03:16:26.191Z,3.32
2018-11-11T03:18:55.127Z,3.16
2018-11-11T03:21:24.270Z,3.15
2018-11-11T03:23:53.110Z,2.99
2018-11-11T03:26:22.167Z,2.95
2018-11-11T03:28:51.232Z,2.79
2018-11-11T03:31:20.128Z,2.82
2018-11-11T03:33:48.891Z,3.12
2018-11-11T03:36:17.605Z,3.21
2018-11-11T03:38:46.540Z,2.88
2018-11-11T03:41:15.458Z,2.80
2018-11-11T03:43:44.566Z,2.78
2018-11-11T03:46:13.490Z,2.81
2018-11-11T03:48:42.199Z,2.68
2018-11-11T03:51:11.018Z,2.59
2018-11-11T03:53:40.177Z,2.56
2018-11-11T03:56:09.101Z,2.56
2018-11-11T03:58:38.374Z,2.51
2018-11-11T04:01:07.829Z,2.61
2018-11-11T04:03:36.484Z,2.56
2018-11-11T04:06:05.074Z,2.48
2018-11-11T04:08:33.816Z,2.47
2018-11-11T04:11:02.807Z,2.58
2018-11-11T04:13:31.903Z,2.53
2018-11-11T04:16:01.029Z,2.45
2018-11-11T04:18:30.011Z,2.44
2018-11-11T04:20:59.059Z,2.53
2018-11-11T04:23:27.948Z,2.54
2018-11-11T04:25:56.688Z,2.44
2018-11-11T04:28:25.678Z,2.34
2018-11-11T04:30:54.598Z,2.25
2018-11-11T04:33:23.206Z,2.25
2018-11-11T04:35:51.967Z,2.22
2018-11-11T04:38:20.630Z,2.25
2018-11-11T04:40:49.566Z,2.41
2018-11-11T04:43:18.877Z,2.40
2018-11-11T04:45:47.810Z,2.44
2018-11-11T04:48:16.713Z,2.43
2018-11-11T04:50:45.765Z,2.36
2018-11-11T04:53:14.685Z,2.31
2018-11-11T04:55:43.592Z,2.29
2018-11-11T04:58:12.234Z,2.25
2018-11-11T05:00:41.191Z,2.20
2018-11-11T05:03:09.874Z,2.14
2018-11-11T05:05:38.534Z,2.09
2018-11-11T05:08:07.210Z,2.13
2018-11-11T05:10:36.063Z,2.23
2018-11-11T05:13:05.161Z,2.28
2018-11-11T05:15:34.146Z,2.26
2018-11-11T05:18:02.996Z,2.20
2018-11-11T05:20:31.930Z,2.19
2018-11-11T05:23:00.686Z,2.29
2018-11-11T05:25:29.658Z,2.32
2018-11-11T05:27:58.684Z,2.35
2018-11-11T05:30:27.695Z,2.29
2018-11-11T05:32:56.537Z,2.24
2018-11-11T05:35:25.357Z,2.30
2018-11-11T05:37:53.965Z,2.34
2018-11-11T05:40:23.059Z,2.37
2018-11-11T05:42:54.670Z,2.31
2018-11-11T05:45:24.505Z,2.42
2018-11-11T05:47:53.467Z,2.57
2018-11-11T05:50:22.380Z,2.60
2018-11-11T05:52:51.155Z,2.70
2018-11-11T05:55:20.059Z,2.80
2018-11-11T05:57:49.128Z,2.82
2018-11-11T06:00:18.662Z,2.83
2018-11-11T06:02:47.347Z,2.81
2018-11-11T06:05:16.562Z,2.84
2018-11-11T06:07:45.311Z,3.01
2018-11-11T06:10:15.150Z,3.35
2018-11-11T06:12:44.189Z,3.51
2018-11-11T06:15:13.622Z,3.60
2018-11-11T06:17:42.591Z,3.67
2018-11-11T06:20:14.269Z,3.87
2018-11-11T06:22:43.438Z,3.97
2018-11-11T06:25:12.611Z,4.17
2018-11-11T06:27:41.315Z,4.14
2018-11-11T06:30:11.027Z,4.28
2018-11-11T06:32:39.861Z,4.35
2018-11-11T06:35:08.577Z,4.39
2018-11-11T06:37:37.304Z,4.58
2018-11-11T06:40:07.972Z,4.91
2018-11-11T06:42:36.873Z,5.07
2018-11-11T06:45:07.184Z,5.19
2018-11-11T06:47:36.338Z,5.25
2018-11-11T06:50:06.024Z,5.30
2018-11-11T06:52:34.760Z,5.34
2018-11-11T06:55:03.638Z,5.53
2018-11-11T06:57:32.735Z,5.60
2018-11-11T07:00:01.829Z,5.76
2018-11-11T07:02:36.936Z,5.93
2018-11-11T07:05:06.906Z,5.94
2018-11-11T07:07:35.834Z,5.97
2018-11-11T07:10:05.043Z,6.06
2018-11-11T07:12:33.707Z,6.25
2018-11-11T07:15:02.457Z,6.17
2018-11-11T07:17:31.326Z,6.35
2018-11-11T07:20:00.288Z,6.45
2018-11-11T07:22:29.118Z,6.58
2018-11-11T07:24:58.118Z,6.57
2018-11-11T07:27:27.064Z,6.74
2018-11-11T07:29:55.687Z,6.97
2018-11-11T07:32:24.410Z,7.27
2018-11-11T07:34:53.275Z,7.41
2018-11-11T07:37:22.032Z,7.46
2018-11-11T07:39:50.839Z,7.51
2018-11-11T07:42:19.755Z,7.64
2018-11-11T07:44:48.602Z,7.74
2018-11-11T07:47:17.678Z,8.00
2018-11-11T07:49:46.581Z,8.12
2018-11-11T07:52:15.452Z,8.33
2018-11-11T07:54:44.657Z,8.67
2018-11-11T07:57:13.798Z,8.74
2018-11-11T07:59:42.903Z,8.74
2018-11-11T08:02:11.689Z,8.86
2018-11-11T08:04:40.358Z,9.07
2018-11-11T08:07:09.250Z,9.07
2018-11-11T08:09:38.058Z,9.49
2018-11-11T08:12:07.584Z,9.62
2018-11-11T08:14:36.568Z,9.71
2018-11-11T08:17:05.868Z,9.66
2018-11-11T08:19:34.915Z,9.68
2018-11-11T08:22:03.797Z,9.66
2018-11-11T08:24:32.791Z,9.55
2018-11-11T08:27:02.134Z,9.76
2018-11-11T08:29:30.995Z,9.83
2018-11-11T08:31:59.672Z,9.85
2018-11-11T08:34:28.431Z,9.99
2018-11-11T08:36:57.094Z,10.26
2018-11-11T08:39:25.770Z,10.14
2018-11-11T08:41:54.646Z,10.49
2018-11-11T08:44:23.524Z,10.76
2018-11-11T08:46:52.423Z,11.07
2018-11-11T08:49:21.353Z,11.46
2018-11-11T08:51:50.185Z,12.02
2018-11-11T08:54:19.189Z,12.38
2018-11-11T08:56:48.133Z,12.62
2018-11-11T08:59:16.942Z,13.47
2018-11-11T09:01:45.710Z,13.73
2018-11-11T09:04:14.386Z,14.17
2018-11-11T09:06:43.049Z,14.45
2018-11-11T09:09:12.035Z,14.51
2018-11-11T09:11:41.340Z,14.95
2018-11-11T09:14:10.142Z,15.47
2018-11-11T09:16:39.143Z,15.47
2018-11-11T09:19:08.088Z,15.62
2018-11-11T09:21:37.016Z,15.81
2018-11-11T09:24:06.329Z,15.83
2018-11-11T09:26:35.233Z,15.97
2018-11-11T09:29:04.971Z,15.94
2018-11-11T09:31:33.998Z,15.82
2018-11-11T09:34:02.743Z,16.06
2018-11-11T09:36:31.502Z,16.77
2018-11-11T09:39:01.250Z,16.48
2018-11-11T09:41:30.494Z,16.33
2018-11-11T09:43:59.582Z,17.04
2018-11-11T09:46:28.622Z,17.00
2018-11-11T09:48:57.467Z,17.50
2018-11-11T09:51:26.758Z,17.62
2018-11-11T09:53:55.607Z,17.72
2018-11-11T09:56:24.542Z,17.92
2018-11-11T09:58:53.443Z,18.10
2018-11-11T10:01:22.685Z,18.31
2018-11-11T10:04:56.997Z,18.04
2018-11-11T10:07:35.876Z,18.27
2018-11-11T10:10:12.028Z,18.62
2018-11-11T10:12:46.946Z,18.42
2018-11-11T10:15:23.514Z,18.85
2018-11-11T10:17:57.754Z,18.78
2018-11-11T10:20:31.723Z,18.83
2018-11-11T10:23:35.351Z,18.85
2018-11-11T10:26:07.850Z,18.69
2018-11-11T10:28:41.242Z,18.67
2018-11-11T10:31:20.102Z,18.97
2018-11-11T10:33:59.455Z,19.05
2018-11-11T10:36:34.256Z,19.45
2018-11-11T10:39:10.019Z,19.34
2018-11-11T10:41:44.141Z,19.39
2018-11-11T10:44:20.050Z,19.25
2018-11-11T10:46:53.904Z,19.40
2018-11-11T10:49:27.697Z,19.84
2018-11-11T10:51:56.639Z,19.84
2018-11-11T10:54:25.510Z,19.65
2018-11-11T10:56:54.243Z,19.47
2018-11-11T10:59:23.060Z,19.85
2018-11-11T11:02:59.133Z,19.80
2018-11-11T11:05:27.876Z,19.80
2018-11-11T11:07:56.846Z,19.66
2018-11-11T11:10:25.784Z,19.67
2018-11-11T11:12:55.038Z,19.96
2018-11-11T11:15:23.993Z,19.78
2018-11-11T11:17:52.779Z,20.18
2018-11-11T11:20:21.716Z,20.38
2018-11-11T11:22:50.888Z,20.40
2018-11-11T11:25:19.959Z,20.37
2018-11-11T11:27:49.142Z,20.86
2018-11-11T11:30:18.266Z,21.03
2018-11-11T11:32:46.976Z,21.21
2018-11-11T11:35:15.783Z,21.12
2018-11-11T11:37:44.742Z,21.05
2018-11-11T11:40:13.614Z,21.45
2018-11-11T11:42:42.512Z,21.68
2018-11-11T11:45:12.318Z,21.64
2018-11-11T11:47:41.939Z,21.79
2018-11-11T11:50:12.399Z,21.72
2018-11-11T11:52:42.136Z,21.54
2018-11-11T11:55:11.723Z,22.29
2018-11-11T11:57:40.885Z,22.28
2018-11-11T12:00:11.939Z,22.11
2018-11-11T12:02:40.996Z,21.81
2018-11-11T12:05:10.271Z,21.89
2018-11-11T12:07:39.250Z,21.37
2018-11-11T12:10:09.746Z,21.40
2018-11-11T12:12:39.467Z,21.61
2018-11-11T12:15:09.523Z,21.94
2018-11-11T12:17:38.552Z,22.20
2018-11-11T12:20:07.895Z,21.57
2018-11-11T12:22:36.617Z,21.27
2018-11-11T12:25:06.267Z,21.66
2018-11-11T12:27:35.156Z,21.14
2018-11-11T12:30:04.346Z,21.69
2018-11-11T12:32:33.251Z,21.74
2018-11-11T12:35:01.956Z,21.73
2018-11-11T12:37:30.627Z,22.08
2018-11-11T12:39:59.701Z,21.97
2018-11-11T12:42:28.292Z,21.97
2018-11-11T12:44:57.276Z,22.42
2018-11-11T12:47:26.538Z,22.98
2018-11-11T12:49:55.694Z,23.06
2018-11-11T12:52:24.469Z,23.14
2018-11-11T12:54:53.349Z,22.61
2018-11-11T12:57:22.576Z,22.66
2018-11-11T12:59:51.451Z,22.91
2018-11-11T13:02:20.242Z,23.23
2018-11-11T13:04:49.126Z,23.15
2018-11-11T13:07:17.753Z,23.28
2018-11-11T13:09:46.511Z,23.43
2018-11-11T13:12:15.400Z,23.52
2018-11-11T13:14:44.150Z,23.82
2018-11-11T13:17:13.238Z,23.69
2018-11-11T13:19:42.036Z,23.82
2018-11-11T13:22:11.036Z,23.90
2018-11-11T13:24:39.767Z,24.20
2018-11-11T13:27:09.454Z,24.00
2018-11-11T13:29:38.493Z,24.14
2018-11-11T13:32:07.365Z,24.20
2018-11-11T13:34:36.387Z,24.23
2018-11-11T13:37:05.142Z,24.34
2018-11-11T13:39:34.285Z,24.29
2018-11-11T13:42:03.237Z,24.54
2018-11-11T13:44:32.160Z,24.97
2018-11-11T13:47:01.583Z,24.98
2018-11-11T13:49:30.526Z,24.79
2018-11-11T13:51:59.342Z,24.88
2018-11-11T13:54:28.306Z,24.98
2018-11-11T13:56:57.027Z,24.80
2018-11-11T13:59:26.096Z,24.97
2018-11-11T14:01:55.174Z,25.12
2018-11-11T14:04:23.901Z,24.55
2018-11-11T14:09:20.515Z,24.68
2018-11-11T14:11:49.378Z,24.49
2018-11-11T14:14:18.522Z,24.64
2018-11-11T14:16:47.503Z,24.36
2018-11-11T14:19:16.704Z,23.83
2018-11-11T14:21:45.498Z,23.46
2018-11-11T14:24:14.231Z,22.33
2018-11-11T14:26:43.671Z,22.49
2018-11-11T14:29:12.411Z,21.91
2018-11-11T14:31:41.382Z,21.52
2018-11-11T14:34:10.062Z,21.14
2018-11-11T14:36:38.810Z,20.84
2018-11-11T14:39:11.062Z,20.60
2018-11-11T14:41:40.725Z,19.79
2018-11-11T14:44:09.767Z,18.94
2018-11-11T14:46:39.200Z,17.88
2018-11-11T14:49:08.850Z,16.63
2018-11-11T14:51:37.938Z,16.27
2018-11-11T14:54:07.085Z,15.48
2018-11-11T14:56:36.014Z,14.91
2018-11-11T14:59:05.234Z,14.57
2018-11-11T15:01:34.158Z,14.18
2018-11-11T15:04:03.325Z,13.92
2018-11-11T15:06:32.182Z,13.66
2018-11-11T15:09:00.927Z,13.45
2018-11-11T15:11:30.197Z,12.88
2018-11-11T15:13:59.008Z,12.50
2018-11-11T15:16:28.018Z,12.03
2018-11-11T15:18:57.601Z,11.86
2018-11-11T15:21:26.730Z,11.81
2018-11-11T15:23:55.621Z,11.73
2018-11-11T15:26:24.535Z,11.45
2018-11-11T15:28:53.447Z,11.26
2018-11-11T15:31:22.344Z,11.21
2018-11-11T15:33:51.083Z,11.09
2018-11-11T15:36:20.162Z,11.17
2018-11-11T15:38:48.962Z,11.10
2018-11-11T15:41:18.068Z,10.78
2018-11-11T15:43:46.992Z,10.63
2018-11-11T15:46:15.850Z,10.45
2018-11-11T15:48:44.745Z,10.32
2018-11-11T15:51:13.524Z,10.18
2018-11-11T15:53:42.697Z,10.09
2018-11-11T15:56:11.505Z,10.05
2018-11-11T15:58:40.453Z,9.99
2018-11-11T16:01:09.285Z,9.93
2018-11-11T16:03:38.277Z,9.81
2018-11-11T16:06:07.531Z,9.72
2018-11-11T16:08:36.275Z,9.60
2018-11-11T16:11:05.814Z,9.58
2018-11-11T16:13:35.085Z,9.51
2018-11-11T16:16:03.787Z,9.48
2018-11-11T16:18:33.624Z,9.43
2018-11-11T16:21:02.988Z,9.42
2018-11-11T16:23:32.141Z,9.29
2018-11-11T16:26:01.173Z,9.32
2018-11-11T16:28:29.906Z,9.33
2018-11-11T16:30:58.694Z,9.36
2018-11-11T16:33:27.575Z,9.35
2018-11-11T16:35:56.357Z,9.18
2018-11-11T16:38:25.189Z,9.17
2018-11-11T16:40:54.067Z,9.09
2018-11-11T16:43:23.078Z,9.01
2018-11-11T16:45:51.775Z,9.07
2018-11-11T16:48:20.864Z,9.08
2018-11-11T16:50:50.649Z,9.16
2018-11-11T16:53:19.740Z,9.10
2018-11-11T16:55:48.986Z,9.16
2018-11-11T16:58:17.838Z,9.12
2018-11-11T17:00:46.614Z,9.05
2018-11-11T17:03:15.295Z,9.03
2018-11-11T17:05:44.202Z,9.14
2018-11-11T17:08:12.959Z,9.04
2018-11-11T17:10:41.893Z,9.06
2018-11-11T17:13:12.025Z,9.08
2018-11-11T17:15:40.953Z,9.05
2018-11-11T17:18:09.837Z,9.40
2018-11-11T17:20:38.907Z,9.47
2018-11-11T17:23:08.507Z,9.59
2018-11-11T17:25:37.439Z,9.74
2018-11-11T17:28:06.836Z,9.78
2018-11-11T17:30:35.614Z,9.69
2018-11-11T17:33:04.708Z,9.55
2018-11-11T17:35:33.723Z,9.47
2018-11-11T17:38:02.675Z,9.30
2018-11-11T17:40:32.025Z,9.24
2018-11-11T17:43:01.723Z,9.29
2018-11-11T17:45:30.818Z,9.17
2018-11-11T17:47:59.962Z,8.77
2018-11-11T17:50:30.158Z,9.04
2018-11-11T17:53:00.163Z,8.87
2018-11-11T17:55:29.829Z,8.87
2018-11-11T17:57:58.971Z,8.54
2018-11-11T18:00:28.920Z,8.18
2018-11-11T18:02:58.294Z,8.16
2018-11-11T18:05:28.375Z,7.91
2018-11-11T18:07:57.180Z,7.73
2018-11-11T18:10:26.715Z,7.69
2018-11-11T18:12:55.607Z,7.69
2018-11-11T18:15:27.097Z,7.63
2018-11-11T18:17:55.749Z,7.59
2018-11-11T18:20:26.921Z,7.73
2018-11-11T18:22:56.334Z,7.82
2018-11-11T18:25:25.164Z,7.63
2018-11-11T18:27:53.898Z,7.59
2018-11-11T18:30:25.347Z,7.63
2018-11-11T18:32:54.094Z,7.62
2018-11-11T18:35:29.662Z,7.46
2018-11-11T18:37:58.902Z,7.26
2018-11-11T18:40:28.919Z,7.27
2018-11-11T18:42:57.854Z,7.14
2018-11-11T18:45:28.070Z,7.01
2018-11-11T18:47:57.284Z,7.05
2018-11-11T18:50:27.531Z,6.99
2018-11-11T18:52:56.357Z,6.90
2018-11-11T18:55:25.382Z,6.85
2018-11-11T18:57:54.074Z,6.78
2018-11-11T19:00:24.402Z,6.82
2018-11-11T19:02:54.009Z,6.74
2018-11-11T19:05:23.418Z,6.82
2018-11-11T19:07:52.364Z,7.01
2018-11-11T19:10:29.173Z,7.14
2018-11-11T19:12:59.709Z,7.14
2018-11-11T19:15:28.759Z,6.93
2018-11-11T19:17:57.694Z,6.86
2018-11-11T19:20:27.117Z,6.77
2018-11-11T19:22:55.958Z,6.43
2018-11-11T19:25:26.257Z,6.44
2018-11-11T19:27:55.546Z,6.54
2018-11-11T19:30:25.652Z,6.41
2018-11-11T19:32:54.645Z,6.35
2018-11-11T19:35:23.430Z,6.29
2018-11-11T19:37:53.404Z,6.34
2018-11-11T19:40:23.466Z,6.26
2018-11-11T19:42:53.132Z,6.09
2018-11-11T19:45:23.355Z,5.97
2018-11-11T19:47:52.210Z,5.99
2018-11-11T19:50:22.294Z,6.01
2018-11-11T19:52:52.526Z,5.98
2018-11-11T19:55:21.892Z,5.90
2018-11-11T19:57:51.518Z,5.90
2018-11-11T20:00:23.340Z,5.98
2018-11-11T20:02:52.741Z,6.03
2018-11-11T20:05:22.192Z,6.07
2018-11-11T20:07:52.162Z,6.02
2018-11-11T20:10:21.630Z,5.82
2018-11-11T20:12:50.825Z,5.79
2018-11-11T20:15:23.045Z,5.83
2018-11-11T20:17:52.027Z,5.72
2018-11-11T20:20:23.291Z,5.63
2018-11-11T20:22:52.333Z,5.55
2018-11-11T20:25:21.739Z,5.47
2018-11-11T20:27:50.594Z,5.44
2018-11-11T20:30:25.055Z,5.48
2018-11-11T20:32:53.879Z,5.56
2018-11-11T20:35:24.243Z,5.46
2018-11-11T20:37:53.133Z,5.40
2018-11-11T20:40:23.023Z,4.92
2018-11-11T20:42:52.239Z,5.50
2018-11-11T20:45:22.498Z,5.59
2018-11-11T20:47:52.166Z,5.50
2018-11-11T20:50:22.336Z,5.49
2018-11-11T20:52:52.867Z,5.31
2018-11-11T20:55:22.229Z,5.32
2018-11-11T20:57:51.655Z,5.36
2018-11-11T21:00:21.819Z,5.55
2018-11-11T21:02:50.759Z,5.59
2018-11-11T21:05:21.374Z,5.50
2018-11-11T21:07:50.447Z,5.57
2018-11-11T21:10:20.674Z,5.48
2018-11-11T21:12:49.355Z,5.37
2018-11-11T21:15:19.747Z,5.27
2018-11-11T21:17:49.308Z,5.35
2018-11-11T21:20:19.920Z,5.14
2018-11-11T21:22:48.787Z,4.99
2018-11-11T21:25:17.569Z,4.85
2018-11-11T21:27:47.105Z,4.76
2018-11-11T21:30:17.455Z,4.79
2018-11-11T21:32:46.367Z,4.89
2018-11-11T21:35:15.447Z,5.02
2018-11-11T21:37:44.531Z,4.95
2018-11-11T21:40:15.362Z,5.08
2018-11-11T21:42:45.537Z,4.84
2018-11-11T21:45:15.970Z,4.73
2018-11-11T21:47:45.129Z,4.65
2018-11-11T21:50:17.511Z,4.65
2018-11-11T21:53:49.883Z,4.73
2018-11-11T21:56:19.331Z,4.52
2018-11-11T21:58:48.043Z,4.52
2018-11-11T22:01:16.698Z,4.62
2018-11-11T22:03:45.544Z,4.66
2018-11-11T22:06:14.526Z,4.67
2018-11-11T22:08:43.567Z,4.62
2018-11-11T22:11:12.847Z,4.62
2018-11-11T22:13:42.003Z,4.54
2018-11-11T22:16:10.919Z,4.59
2018-11-11T22:18:40.739Z,4.61
2018-11-11T22:21:09.528Z,4.62
2018-11-11T22:23:38.353Z,4.47
2018-11-11T22:26:07.462Z,4.64
2018-11-11T22:28:36.117Z,4.69
2018-11-11T22:31:04.694Z,4.84
2018-11-11T22:33:33.450Z,4.66
2018-11-11T22:36:02.161Z,4.60
2018-11-11T22:38:31.045Z,4.43
2018-11-11T22:41:00.260Z,4.35
2018-11-11T22:43:29.140Z,4.29
2018-11-11T22:45:58.086Z,4.38
2018-11-11T22:48:27.446Z,4.30
2018-11-11T22:50:56.428Z,4.14
2018-11-11T22:53:25.125Z,4.03
2018-11-11T22:55:54.521Z,4.02
2018-11-11T22:58:23.327Z,4.02
2018-11-11T23:00:57.401Z,4.04
2018-11-11T23:03:26.387Z,4.08
2018-11-11T23:05:55.382Z,4.13
2018-11-11T23:08:24.443Z,4.11
2018-11-11T23:10:53.919Z,4.26
2018-11-11T23:13:22.994Z,3.99
2018-11-11T23:15:52.282Z,4.01
2018-11-11T23:18:21.137Z,4.01
2018-11-11T23:20:50.092Z,4.05
2018-11-11T23:23:19.378Z,4.02
2018-11-11T23:25:48.484Z,4.08
2018-11-11T23:28:17.289Z,4.27
2018-11-11T23:30:46.254Z,4.37
2018-11-11T23:33:15.207Z,4.31
2018-11-11T23:35:44.202Z,4.37
2018-11-11T23:38:13.145Z,4.30
2018-11-11T23:40:41.778Z,4.25
2018-11-11T23:43:10.509Z,4.27
2018-11-11T23:45:39.717Z,4.19
2018-11-11T23:48:08.597Z,4.01
2018-11-11T23:50:37.510Z,3.95
2018-11-11T23:53:06.714Z,3.78
2018-11-11T23:55:35.696Z,3.77
2018-11-11T23:58:04.470Z,3.64
